sensor_id;sensor_type;location;lat;lon;timestamp;P1;durP1;ratioP1;P2;durP2;ratioP2
11338;SDS011;5724;42.684;23.252;2022-12-07T00:00:00;45.57;;;29.00;;
11338;SDS011;5724;42.684;23.252;2022-12-07T00:02:26;47.53;;;31.03;;
11338;SDS011;5724;42.684;23.252;2022-12-07T00:04:52;52.90;;;32.67;;
11338;SDS011;5724;42.684;23.252;2022-12-07T00:07:17;45.53;;;29.27;;
11338;SDS011;5724;42.684;23.252;2022-12-07T00:09:43;38.93;;;28.20;;
11338;SDS011;5724;42.684;23.252;2022-12-07T00:12:08;40.30;;;27.93;;
11338;SDS011;5724;42.684;23.252;2022-12-07T00:14:34;41.20;;;28.13;;
11338;SDS011;5724;42.684;23.252;2022-12-07T00:16:59;41.87;;;28.37;;
11338;SDS011;5724;42.684;23.252;2022-12-07T00:19:24;39.67;;;27.43;;
11338;SDS011;5724;42.684;23.252;2022-12-07T00:21:50;38.60;;;26.70;;
11338;SDS011;5724;42.684;23.252;2022-12-07T00:24:15;42.27;;;27.63;;
11338;SDS011;5724;42.684;23.252;2022-12-07T00:26:41;36.23;;;26.77;;
11338;SDS011;5724;42.684;23.252;2022-12-07T00:29:13;38.50;;;27.83;;
11338;SDS011;5724;42.684;23.252;2022-12-07T00:31:45;43.40;;;27.97;;
11338;SDS011;5724;42.684;23.252;2022-12-07T00:34:13;39.83;;;27.47;;
11338;SDS011;5724;42.684;23.252;2022-12-07T00:36:41;38.67;;;28.77;;
11338;SDS011;5724;42.684;23.252;2022-12-07T00:39:06;47.23;;;28.90;;
11338;SDS011;5724;42.684;23.252;2022-12-07T00:41:32;38.90;;;27.63;;
11338;SDS011;5724;42.684;23.252;2022-12-07T00:43:58;37.90;;;27.17;;
11338;SDS011;5724;42.684;23.252;2022-12-07T00:46:23;41.03;;;26.30;;
11338;SDS011;5724;42.684;23.252;2022-12-07T00:48:50;37.63;;;26.27;;
11338;SDS011;5724;42.684;23.252;2022-12-07T00:51:17;40.93;;;26.00;;
11338;SDS011;5724;42.684;23.252;2022-12-07T00:53:44;37.60;;;25.80;;
11338;SDS011;5724;42.684;23.252;2022-12-07T00:56:11;39.00;;;26.87;;
11338;SDS011;5724;42.684;23.252;2022-12-07T00:58:39;41.53;;;27.67;;
11338;SDS011;5724;42.684;23.252;2022-12-07T01:01:06;39.60;;;27.30;;
11338;SDS011;5724;42.684;23.252;2022-12-07T01:03:32;38.93;;;26.80;;
11338;SDS011;5724;42.684;23.252;2022-12-07T01:05:58;34.80;;;25.70;;
11338;SDS011;5724;42.684;23.252;2022-12-07T01:08:25;41.17;;;26.50;;
11338;SDS011;5724;42.684;23.252;2022-12-07T01:10:59;37.37;;;25.33;;
11338;SDS011;5724;42.684;23.252;2022-12-07T01:13:26;39.03;;;27.53;;
11338;SDS011;5724;42.684;23.252;2022-12-07T01:15:55;38.03;;;26.40;;
11338;SDS011;5724;42.684;23.252;2022-12-07T01:18:24;35.63;;;24.87;;
11338;SDS011;5724;42.684;23.252;2022-12-07T01:21:00;35.67;;;24.83;;
11338;SDS011;5724;42.684;23.252;2022-12-07T01:23:27;36.37;;;26.50;;
11338;SDS011;5724;42.684;23.252;2022-12-07T01:25:57;33.47;;;25.03;;
11338;SDS011;5724;42.684;23.252;2022-12-07T01:28:24;38.47;;;25.27;;
11338;SDS011;5724;42.684;23.252;2022-12-07T01:30:57;38.37;;;26.27;;
11338;SDS011;5724;42.684;23.252;2022-12-07T01:33:22;38.23;;;24.70;;
11338;SDS011;5724;42.684;23.252;2022-12-07T01:35:48;32.00;;;23.23;;
11338;SDS011;5724;42.684;23.252;2022-12-07T01:38:13;32.20;;;23.73;;
11338;SDS011;5724;42.684;23.252;2022-12-07T01:40:39;33.40;;;23.03;;
11338;SDS011;5724;42.684;23.252;2022-12-07T01:43:09;34.23;;;23.13;;
11338;SDS011;5724;42.684;23.252;2022-12-07T01:45:41;34.50;;;24.17;;
11338;SDS011;5724;42.684;23.252;2022-12-07T01:48:07;30.80;;;22.07;;
11338;SDS011;5724;42.684;23.252;2022-12-07T01:50:35;32.20;;;22.90;;
11338;SDS011;5724;42.684;23.252;2022-12-07T01:53:03;34.97;;;23.57;;
11338;SDS011;5724;42.684;23.252;2022-12-07T01:55:31;37.07;;;23.07;;
11338;SDS011;5724;42.684;23.252;2022-12-07T01:57:57;30.90;;;22.67;;
11338;SDS011;5724;42.684;23.252;2022-12-07T02:00:23;29.83;;;21.47;;
11338;SDS011;5724;42.684;23.252;2022-12-07T02:05:30;30.80;;;21.73;;
11338;SDS011;5724;42.684;23.252;2022-12-07T02:07:57;27.73;;;21.60;;
11338;SDS011;5724;42.684;23.252;2022-12-07T02:10:25;29.03;;;22.43;;
11338;SDS011;5724;42.684;23.252;2022-12-07T02:12:56;32.37;;;22.47;;
11338;SDS011;5724;42.684;23.252;2022-12-07T02:15:29;29.20;;;21.77;;
11338;SDS011;5724;42.684;23.252;2022-12-07T02:18:15;31.03;;;21.53;;
11338;SDS011;5724;42.684;23.252;2022-12-07T02:26:29;36.83;;;24.67;;
11338;SDS011;5724;42.684;23.252;2022-12-07T02:29:25;34.07;;;23.90;;
11338;SDS011;5724;42.684;23.252;2022-12-07T02:31:56;33.00;;;22.23;;
11338;SDS011;5724;42.684;23.252;2022-12-07T02:37:55;29.60;;;21.17;;
11338;SDS011;5724;42.684;23.252;2022-12-07T02:40:22;34.60;;;21.63;;
11338;SDS011;5724;42.684;23.252;2022-12-07T02:43:07;28.47;;;21.07;;
11338;SDS011;5724;42.684;23.252;2022-12-07T02:45:38;28.43;;;21.57;;
11338;SDS011;5724;42.684;23.252;2022-12-07T02:48:05;29.83;;;21.90;;
11338;SDS011;5724;42.684;23.252;2022-12-07T02:50:33;29.23;;;21.00;;
11338;SDS011;5724;42.684;23.252;2022-12-07T02:53:00;34.77;;;21.70;;
11338;SDS011;5724;42.684;23.252;2022-12-07T02:55:28;30.80;;;21.53;;
11338;SDS011;5724;42.684;23.252;2022-12-07T03:00:54;31.93;;;22.13;;
11338;SDS011;5724;42.684;23.252;2022-12-07T03:03:30;30.77;;;21.53;;
11338;SDS011;5724;42.684;23.252;2022-12-07T03:06:10;29.37;;;21.87;;
11338;SDS011;5724;42.684;23.252;2022-12-07T03:08:50;29.60;;;21.90;;
11338;SDS011;5724;42.684;23.252;2022-12-07T03:11:36;33.70;;;22.23;;
11338;SDS011;5724;42.684;23.252;2022-12-07T03:14:21;32.60;;;21.93;;
11338;SDS011;5724;42.684;23.252;2022-12-07T03:16:52;33.93;;;23.07;;
11338;SDS011;5724;42.684;23.252;2022-12-07T03:19:26;34.37;;;23.40;;
11338;SDS011;5724;42.684;23.252;2022-12-07T03:24:36;30.03;;;21.93;;
11338;SDS011;5724;42.684;23.252;2022-12-07T03:27:13;33.20;;;22.63;;
11338;SDS011;5724;42.684;23.252;2022-12-07T03:29:45;34.30;;;22.20;;
11338;SDS011;5724;42.684;23.252;2022-12-07T03:32:19;30.03;;;21.20;;
11338;SDS011;5724;42.684;23.252;2022-12-07T03:34:56;31.10;;;21.70;;
11338;SDS011;5724;42.684;23.252;2022-12-07T03:37:38;32.83;;;21.70;;
11338;SDS011;5724;42.684;23.252;2022-12-07T03:40:16;28.77;;;20.93;;
11338;SDS011;5724;42.684;23.252;2022-12-07T03:42:56;34.53;;;22.93;;
11338;SDS011;5724;42.684;23.252;2022-12-07T03:45:30;32.57;;;22.53;;
11338;SDS011;5724;42.684;23.252;2022-12-07T03:48:05;30.83;;;22.10;;
11338;SDS011;5724;42.684;23.252;2022-12-07T03:53:25;33.07;;;22.67;;
11338;SDS011;5724;42.684;23.252;2022-12-07T03:56:13;31.20;;;22.10;;
11338;SDS011;5724;42.684;23.252;2022-12-07T03:58:39;35.00;;;23.53;;
11338;SDS011;5724;42.684;23.252;2022-12-07T04:01:06;32.67;;;22.30;;
11338;SDS011;5724;42.684;23.252;2022-12-07T04:03:32;34.03;;;23.10;;
11338;SDS011;5724;42.684;23.252;2022-12-07T04:05:57;39.90;;;27.10;;
11338;SDS011;5724;42.684;23.252;2022-12-07T04:08:24;42.50;;;28.43;;
11338;SDS011;5724;42.684;23.252;2022-12-07T04:10:50;35.07;;;23.10;;
11338;SDS011;5724;42.684;23.252;2022-12-07T04:13:15;37.20;;;27.53;;
11338;SDS011;5724;42.684;23.252;2022-12-07T04:15:41;33.23;;;23.57;;
11338;SDS011;5724;42.684;23.252;2022-12-07T04:18:06;34.03;;;24.13;;
11338;SDS011;5724;42.684;23.252;2022-12-07T04:20:32;36.33;;;23.13;;
11338;SDS011;5724;42.684;23.252;2022-12-07T04:22:57;31.73;;;22.10;;
11338;SDS011;5724;42.684;23.252;2022-12-07T04:25:22;34.73;;;22.87;;
11338;SDS011;5724;42.684;23.252;2022-12-07T04:27:48;34.37;;;22.67;;
11338;SDS011;5724;42.684;23.252;2022-12-07T04:30:14;37.83;;;24.87;;
11338;SDS011;5724;42.684;23.252;2022-12-07T04:32:40;33.80;;;24.10;;
11338;SDS011;5724;42.684;23.252;2022-12-07T04:35:05;38.27;;;24.77;;
11338;SDS011;5724;42.684;23.252;2022-12-07T04:37:31;34.50;;;23.40;;
11338;SDS011;5724;42.684;23.252;2022-12-07T04:39:57;39.03;;;24.70;;
11338;SDS011;5724;42.684;23.252;2022-12-07T04:42:22;39.13;;;25.03;;
11338;SDS011;5724;42.684;23.252;2022-12-07T04:44:48;43.47;;;28.07;;
11338;SDS011;5724;42.684;23.252;2022-12-07T04:47:13;39.37;;;24.03;;
11338;SDS011;5724;42.684;23.252;2022-12-07T04:49:39;38.53;;;24.07;;
11338;SDS011;5724;42.684;23.252;2022-12-07T04:52:04;42.13;;;26.60;;
11338;SDS011;5724;42.684;23.252;2022-12-07T04:54:30;39.53;;;25.27;;
11338;SDS011;5724;42.684;23.252;2022-12-07T04:56:55;36.63;;;23.70;;
11338;SDS011;5724;42.684;23.252;2022-12-07T04:59:21;36.93;;;25.17;;
11338;SDS011;5724;42.684;23.252;2022-12-07T05:01:46;44.87;;;27.63;;
11338;SDS011;5724;42.684;23.252;2022-12-07T05:04:11;44.47;;;29.17;;
11338;SDS011;5724;42.684;23.252;2022-12-07T05:06:37;37.10;;;24.90;;
11338;SDS011;5724;42.684;23.252;2022-12-07T05:09:03;36.97;;;25.70;;
11338;SDS011;5724;42.684;23.252;2022-12-07T05:11:28;42.83;;;25.60;;
11338;SDS011;5724;42.684;23.252;2022-12-07T05:14:04;39.20;;;25.37;;
11338;SDS011;5724;42.684;23.252;2022-12-07T05:16:59;35.83;;;23.27;;
11338;SDS011;5724;42.684;23.252;2022-12-07T05:19:25;39.00;;;24.43;;
11338;SDS011;5724;42.684;23.252;2022-12-07T05:21:51;34.80;;;23.43;;
11338;SDS011;5724;42.684;23.252;2022-12-07T05:24:17;36.60;;;23.17;;
11338;SDS011;5724;42.684;23.252;2022-12-07T05:26:43;38.83;;;24.60;;
11338;SDS011;5724;42.684;23.252;2022-12-07T05:29:12;37.47;;;24.20;;
11338;SDS011;5724;42.684;23.252;2022-12-07T05:31:40;35.40;;;24.97;;
11338;SDS011;5724;42.684;23.252;2022-12-07T05:34:06;41.93;;;26.67;;
11338;SDS011;5724;42.684;23.252;2022-12-07T05:36:31;36.50;;;25.40;;
11338;SDS011;5724;42.684;23.252;2022-12-07T05:38:57;44.27;;;26.73;;
11338;SDS011;5724;42.684;23.252;2022-12-07T05:41:23;39.93;;;26.87;;
11338;SDS011;5724;42.684;23.252;2022-12-07T05:44:07;39.00;;;25.83;;
11338;SDS011;5724;42.684;23.252;2022-12-07T05:46:33;39.50;;;26.20;;
11338;SDS011;5724;42.684;23.252;2022-12-07T05:48:59;45.97;;;26.80;;
11338;SDS011;5724;42.684;23.252;2022-12-07T05:51:25;35.83;;;25.67;;
11338;SDS011;5724;42.684;23.252;2022-12-07T05:53:51;36.87;;;24.63;;
11338;SDS011;5724;42.684;23.252;2022-12-07T05:56:17;43.10;;;26.90;;
11338;SDS011;5724;42.684;23.252;2022-12-07T05:58:42;38.37;;;26.27;;
11338;SDS011;5724;42.684;23.252;2022-12-07T06:01:26;36.13;;;24.63;;
11338;SDS011;5724;42.684;23.252;2022-12-07T06:03:52;41.90;;;26.53;;
11338;SDS011;5724;42.684;23.252;2022-12-07T06:06:18;45.03;;;28.23;;
11338;SDS011;5724;42.684;23.252;2022-12-07T06:08:43;42.63;;;27.03;;
11338;SDS011;5724;42.684;23.252;2022-12-07T06:11:09;43.67;;;27.63;;
11338;SDS011;5724;42.684;23.252;2022-12-07T06:13:53;42.33;;;28.23;;
11338;SDS011;5724;42.684;23.252;2022-12-07T06:16:18;40.27;;;26.93;;
11338;SDS011;5724;42.684;23.252;2022-12-07T06:18:44;42.67;;;26.97;;
11338;SDS011;5724;42.684;23.252;2022-12-07T06:21:09;41.93;;;27.27;;
11338;SDS011;5724;42.684;23.252;2022-12-07T06:23:35;43.67;;;27.57;;
11338;SDS011;5724;42.684;23.252;2022-12-07T06:26:00;46.43;;;27.87;;
11338;SDS011;5724;42.684;23.252;2022-12-07T06:28:25;40.17;;;26.27;;
11338;SDS011;5724;42.684;23.252;2022-12-07T06:30:57;37.43;;;25.40;;
11338;SDS011;5724;42.684;23.252;2022-12-07T06:33:24;52.07;;;28.83;;
11338;SDS011;5724;42.684;23.252;2022-12-07T06:35:49;33.97;;;23.90;;
11338;SDS011;5724;42.684;23.252;2022-12-07T06:38:15;37.83;;;24.40;;
11338;SDS011;5724;42.684;23.252;2022-12-07T06:40:40;40.67;;;26.10;;
11338;SDS011;5724;42.684;23.252;2022-12-07T06:43:06;44.53;;;26.53;;
11338;SDS011;5724;42.684;23.252;2022-12-07T06:45:31;41.43;;;28.27;;
11338;SDS011;5724;42.684;23.252;2022-12-07T06:47:58;37.17;;;26.73;;
11338;SDS011;5724;42.684;23.252;2022-12-07T06:50:23;41.90;;;26.60;;
11338;SDS011;5724;42.684;23.252;2022-12-07T06:52:50;44.37;;;29.47;;
11338;SDS011;5724;42.684;23.252;2022-12-07T06:55:16;44.47;;;28.67;;
11338;SDS011;5724;42.684;23.252;2022-12-07T06:57:41;40.27;;;25.57;;
11338;SDS011;5724;42.684;23.252;2022-12-07T07:00:07;44.70;;;31.10;;
11338;SDS011;5724;42.684;23.252;2022-12-07T07:02:32;44.03;;;27.53;;
11338;SDS011;5724;42.684;23.252;2022-12-07T07:04:58;39.47;;;26.03;;
11338;SDS011;5724;42.684;23.252;2022-12-07T07:07:23;40.13;;;25.50;;
11338;SDS011;5724;42.684;23.252;2022-12-07T07:09:49;40.87;;;25.97;;
11338;SDS011;5724;42.684;23.252;2022-12-07T07:12:14;42.47;;;27.23;;
11338;SDS011;5724;42.684;23.252;2022-12-07T07:14:39;40.23;;;27.60;;
11338;SDS011;5724;42.684;23.252;2022-12-07T07:17:05;44.40;;;27.70;;
11338;SDS011;5724;42.684;23.252;2022-12-07T07:19:30;41.70;;;27.13;;
11338;SDS011;5724;42.684;23.252;2022-12-07T07:21:56;42.63;;;26.73;;
11338;SDS011;5724;42.684;23.252;2022-12-07T07:24:21;46.10;;;29.87;;
11338;SDS011;5724;42.684;23.252;2022-12-07T07:26:46;47.13;;;29.73;;
11338;SDS011;5724;42.684;23.252;2022-12-07T07:29:12;46.23;;;29.37;;
11338;SDS011;5724;42.684;23.252;2022-12-07T07:31:37;43.53;;;28.63;;
11338;SDS011;5724;42.684;23.252;2022-12-07T07:34:03;47.00;;;29.47;;
11338;SDS011;5724;42.684;23.252;2022-12-07T07:36:29;48.33;;;28.83;;
11338;SDS011;5724;42.684;23.252;2022-12-07T07:38:54;46.07;;;29.17;;
11338;SDS011;5724;42.684;23.252;2022-12-07T07:41:20;46.57;;;29.33;;
11338;SDS011;5724;42.684;23.252;2022-12-07T07:43:45;45.37;;;28.83;;
11338;SDS011;5724;42.684;23.252;2022-12-07T07:46:11;44.43;;;28.77;;
11338;SDS011;5724;42.684;23.252;2022-12-07T07:48:36;43.77;;;28.83;;
11338;SDS011;5724;42.684;23.252;2022-12-07T07:51:04;42.97;;;29.07;;
11338;SDS011;5724;42.684;23.252;2022-12-07T07:53:31;40.03;;;27.33;;
11338;SDS011;5724;42.684;23.252;2022-12-07T07:55:57;49.17;;;29.80;;
11338;SDS011;5724;42.684;23.252;2022-12-07T07:58:23;47.83;;;28.80;;
11338;SDS011;5724;42.684;23.252;2022-12-07T08:00:48;45.13;;;28.90;;
11338;SDS011;5724;42.684;23.252;2022-12-07T08:03:14;49.73;;;30.57;;
11338;SDS011;5724;42.684;23.252;2022-12-07T08:05:39;50.20;;;32.80;;
11338;SDS011;5724;42.684;23.252;2022-12-07T08:08:05;54.17;;;33.20;;
11338;SDS011;5724;42.684;23.252;2022-12-07T08:10:30;50.23;;;32.93;;
11338;SDS011;5724;42.684;23.252;2022-12-07T08:12:57;51.50;;;34.00;;
11338;SDS011;5724;42.684;23.252;2022-12-07T08:15:36;47.77;;;32.77;;
11338;SDS011;5724;42.684;23.252;2022-12-07T08:18:03;47.17;;;32.53;;
11338;SDS011;5724;42.684;23.252;2022-12-07T08:20:31;48.53;;;32.33;;
11338;SDS011;5724;42.684;23.252;2022-12-07T08:22:58;49.47;;;32.40;;
11338;SDS011;5724;42.684;23.252;2022-12-07T08:25:24;55.67;;;33.33;;
11338;SDS011;5724;42.684;23.252;2022-12-07T08:27:50;45.70;;;31.47;;
11338;SDS011;5724;42.684;23.252;2022-12-07T08:30:16;45.30;;;31.33;;
11338;SDS011;5724;42.684;23.252;2022-12-07T08:32:43;48.20;;;32.57;;
11338;SDS011;5724;42.684;23.252;2022-12-07T08:35:09;51.80;;;34.43;;
11338;SDS011;5724;42.684;23.252;2022-12-07T08:37:35;52.33;;;35.13;;
11338;SDS011;5724;42.684;23.252;2022-12-07T08:40:01;53.67;;;35.67;;
11338;SDS011;5724;42.684;23.252;2022-12-07T08:42:27;103.23;;;65.87;;
11338;SDS011;5724;42.684;23.252;2022-12-07T08:44:55;99.13;;;64.67;;
11338;SDS011;5724;42.684;23.252;2022-12-07T08:47:22;73.20;;;46.47;;
11338;SDS011;5724;42.684;23.252;2022-12-07T08:49:49;77.37;;;50.87;;
11338;SDS011;5724;42.684;23.252;2022-12-07T08:52:17;63.00;;;41.40;;
11338;SDS011;5724;42.684;23.252;2022-12-07T08:54:42;57.43;;;37.60;;
11338;SDS011;5724;42.684;23.252;2022-12-07T08:57:08;59.03;;;37.67;;
11338;SDS011;5724;42.684;23.252;2022-12-07T08:59:35;55.00;;;36.93;;
11338;SDS011;5724;42.684;23.252;2022-12-07T09:02:03;58.95;;;38.42;;
11338;SDS011;5724;42.684;23.252;2022-12-07T09:04:30;56.57;;;37.97;;
11338;SDS011;5724;42.684;23.252;2022-12-07T09:06:56;61.17;;;40.80;;
11338;SDS011;5724;42.684;23.252;2022-12-07T09:09:21;61.37;;;40.33;;
11338;SDS011;5724;42.684;23.252;2022-12-07T09:11:47;53.40;;;37.72;;
11338;SDS011;5724;42.684;23.252;2022-12-07T09:14:13;56.27;;;36.40;;
11338;SDS011;5724;42.684;23.252;2022-12-07T09:16:38;57.15;;;39.08;;
11338;SDS011;5724;42.684;23.252;2022-12-07T09:19:04;57.38;;;38.00;;
11338;SDS011;5724;42.684;23.252;2022-12-07T09:21:30;63.22;;;38.03;;
11338;SDS011;5724;42.684;23.252;2022-12-07T09:23:55;59.05;;;37.40;;
11338;SDS011;5724;42.684;23.252;2022-12-07T09:26:21;52.92;;;38.08;;
11338;SDS011;5724;42.684;23.252;2022-12-07T09:28:46;58.25;;;41.92;;
11338;SDS011;5724;42.684;23.252;2022-12-07T09:31:12;57.35;;;40.08;;
11338;SDS011;5724;42.684;23.252;2022-12-07T09:33:37;58.70;;;40.17;;
11338;SDS011;5724;42.684;23.252;2022-12-07T09:36:03;53.42;;;39.72;;
11338;SDS011;5724;42.684;23.252;2022-12-07T09:38:29;55.40;;;37.42;;
11338;SDS011;5724;42.684;23.252;2022-12-07T09:40:55;54.55;;;37.70;;
11338;SDS011;5724;42.684;23.252;2022-12-07T09:43:22;53.78;;;36.80;;
11338;SDS011;5724;42.684;23.252;2022-12-07T09:45:53;62.45;;;37.75;;
11338;SDS011;5724;42.684;23.252;2022-12-07T09:48:21;54.08;;;36.50;;
11338;SDS011;5724;42.684;23.252;2022-12-07T09:50:53;55.92;;;37.42;;
11338;SDS011;5724;42.684;23.252;2022-12-07T09:53:30;46.13;;;33.17;;
11338;SDS011;5724;42.684;23.252;2022-12-07T09:56:02;51.85;;;34.58;;
11338;SDS011;5724;42.684;23.252;2022-12-07T09:58:29;48.67;;;34.30;;
11338;SDS011;5724;42.684;23.252;2022-12-07T10:00:57;49.97;;;33.83;;
11338;SDS011;5724;42.684;23.252;2022-12-07T10:03:28;49.13;;;34.92;;
11338;SDS011;5724;42.684;23.252;2022-12-07T10:05:54;58.17;;;36.65;;
11338;SDS011;5724;42.684;23.252;2022-12-07T10:08:20;53.63;;;34.83;;
11338;SDS011;5724;42.684;23.252;2022-12-07T10:10:46;46.67;;;30.00;;
11338;SDS011;5724;42.684;23.252;2022-12-07T10:13:19;45.30;;;32.17;;
11338;SDS011;5724;42.684;23.252;2022-12-07T10:16:02;40.50;;;29.02;;
11338;SDS011;5724;42.684;23.252;2022-12-07T10:21:03;41.15;;;28.75;;
11338;SDS011;5724;42.684;23.252;2022-12-07T10:23:29;42.10;;;29.20;;
11338;SDS011;5724;42.684;23.252;2022-12-07T10:25:55;37.33;;;26.33;;
11338;SDS011;5724;42.684;23.252;2022-12-07T10:28:20;38.55;;;25.08;;
11338;SDS011;5724;42.684;23.252;2022-12-07T10:30:48;36.67;;;25.60;;
11338;SDS011;5724;42.684;23.252;2022-12-07T10:36:25;38.67;;;23.75;;
11338;SDS011;5724;42.684;23.252;2022-12-07T10:39:00;39.40;;;25.15;;
11338;SDS011;5724;42.684;23.252;2022-12-07T10:41:28;36.42;;;25.13;;
11338;SDS011;5724;42.684;23.252;2022-12-07T10:43:54;35.78;;;25.33;;
11338;SDS011;5724;42.684;23.252;2022-12-07T10:54:02;42.85;;;25.48;;
11338;SDS011;5724;42.684;23.252;2022-12-07T10:59:32;33.38;;;23.05;;
11338;SDS011;5724;42.684;23.252;2022-12-07T11:02:16;41.65;;;24.40;;
11338;SDS011;5724;42.684;23.252;2022-12-07T11:05:16;35.80;;;23.30;;
11338;SDS011;5724;42.684;23.252;2022-12-07T11:13:24;28.52;;;18.75;;
11338;SDS011;5724;42.684;23.252;2022-12-07T11:21:10;35.40;;;20.85;;
11338;SDS011;5724;42.684;23.252;2022-12-07T11:38:00;28.85;;;21.65;;
11338;SDS011;5724;42.684;23.252;2022-12-07T11:40:34;28.90;;;20.17;;
11338;SDS011;5724;42.684;23.252;2022-12-07T11:45:52;31.67;;;21.17;;
11338;SDS011;5724;42.684;23.252;2022-12-07T11:51:03;27.75;;;19.13;;
11338;SDS011;5724;42.684;23.252;2022-12-07T11:53:39;23.63;;;18.05;;
11338;SDS011;5724;42.684;23.252;2022-12-07T11:56:13;30.23;;;20.35;;
11338;SDS011;5724;42.684;23.252;2022-12-07T12:06:40;25.40;;;18.88;;
11338;SDS011;5724;42.684;23.252;2022-12-07T12:14:35;31.00;;;21.88;;
11338;SDS011;5724;42.684;23.252;2022-12-07T12:17:25;30.50;;;20.25;;
11338;SDS011;5724;42.684;23.252;2022-12-07T12:20:32;28.38;;;19.35;;
11338;SDS011;5724;42.684;23.252;2022-12-07T12:23:11;24.27;;;18.92;;
11338;SDS011;5724;42.684;23.252;2022-12-07T12:25:47;27.33;;;18.85;;
11338;SDS011;5724;42.684;23.252;2022-12-07T12:28:29;23.85;;;18.50;;
11338;SDS011;5724;42.684;23.252;2022-12-07T12:31:09;26.98;;;18.83;;
11338;SDS011;5724;42.684;23.252;2022-12-07T12:33:47;26.33;;;17.90;;
11338;SDS011;5724;42.684;23.252;2022-12-07T12:51:49;23.95;;;18.05;;
11338;SDS011;5724;42.684;23.252;2022-12-07T12:54:20;31.33;;;18.35;;
11338;SDS011;5724;42.684;23.252;2022-12-07T12:57:06;25.40;;;17.17;;
11338;SDS011;5724;42.684;23.252;2022-12-07T13:02:30;25.58;;;18.63;;
11338;SDS011;5724;42.684;23.252;2022-12-07T13:31:52;22.48;;;17.10;;
11338;SDS011;5724;42.684;23.252;2022-12-07T13:39:47;25.60;;;19.15;;
11338;SDS011;5724;42.684;23.252;2022-12-07T13:42:20;26.48;;;19.10;;
11338;SDS011;5724;42.684;23.252;2022-12-07T13:44:47;21.77;;;17.80;;
11338;SDS011;5724;42.684;23.252;2022-12-07T13:47:14;23.98;;;17.40;;
11338;SDS011;5724;42.684;23.252;2022-12-07T13:49:49;22.27;;;17.60;;
11338;SDS011;5724;42.684;23.252;2022-12-07T13:52:20;26.27;;;18.42;;
11338;SDS011;5724;42.684;23.252;2022-12-07T13:54:49;23.58;;;17.60;;
11338;SDS011;5724;42.684;23.252;2022-12-07T13:57:25;28.95;;;17.42;;
11338;SDS011;5724;42.684;23.252;2022-12-07T13:59:52;24.38;;;16.92;;
11338;SDS011;5724;42.684;23.252;2022-12-07T14:02:28;25.48;;;16.67;;
11338;SDS011;5724;42.684;23.252;2022-12-07T14:07:32;24.85;;;15.80;;
11338;SDS011;5724;42.684;23.252;2022-12-07T14:10:04;24.35;;;15.82;;
11338;SDS011;5724;42.684;23.252;2022-12-07T14:12:32;21.67;;;15.32;;
11338;SDS011;5724;42.684;23.252;2022-12-07T14:15:00;27.33;;;15.90;;
11338;SDS011;5724;42.684;23.252;2022-12-07T14:17:27;22.45;;;15.85;;
11338;SDS011;5724;42.684;23.252;2022-12-07T14:20:00;24.15;;;14.50;;
11338;SDS011;5724;42.684;23.252;2022-12-07T14:24:58;20.95;;;15.65;;
11338;SDS011;5724;42.684;23.252;2022-12-07T14:28:00;24.30;;;14.40;;
11338;SDS011;5724;42.684;23.252;2022-12-07T14:30:27;20.45;;;14.98;;
11338;SDS011;5724;42.684;23.252;2022-12-07T14:32:57;22.23;;;17.58;;
11338;SDS011;5724;42.684;23.252;2022-12-07T14:35:27;26.33;;;16.20;;
11338;SDS011;5724;42.684;23.252;2022-12-07T14:37:53;24.52;;;16.77;;
11338;SDS011;5724;42.684;23.252;2022-12-07T14:40:28;22.23;;;15.20;;
11338;SDS011;5724;42.684;23.252;2022-12-07T14:43:02;23.05;;;15.98;;
11338;SDS011;5724;42.684;23.252;2022-12-07T14:45:30;23.67;;;15.98;;
11338;SDS011;5724;42.684;23.252;2022-12-07T14:47:56;19.70;;;16.15;;
11338;SDS011;5724;42.684;23.252;2022-12-07T14:50:21;29.63;;;20.88;;
11338;SDS011;5724;42.684;23.252;2022-12-07T14:52:58;37.30;;;19.45;;
11338;SDS011;5724;42.684;23.252;2022-12-07T14:55:28;41.88;;;27.27;;
11338;SDS011;5724;42.684;23.252;2022-12-07T14:57:55;29.55;;;20.88;;
11338;SDS011;5724;42.684;23.252;2022-12-07T15:00:23;26.38;;;18.90;;
11338;SDS011;5724;42.684;23.252;2022-12-07T15:02:50;26.83;;;16.80;;
11338;SDS011;5724;42.684;23.252;2022-12-07T15:05:16;23.92;;;16.50;;
11338;SDS011;5724;42.684;23.252;2022-12-07T15:07:43;27.88;;;17.67;;
11338;SDS011;5724;42.684;23.252;2022-12-07T15:10:13;43.45;;;23.60;;
11338;SDS011;5724;42.684;23.252;2022-12-07T15:12:40;50.25;;;29.52;;
11338;SDS011;5724;42.684;23.252;2022-12-07T15:15:05;37.15;;;25.00;;
11338;SDS011;5724;42.684;23.252;2022-12-07T15:17:31;33.10;;;22.02;;
11338;SDS011;5724;42.684;23.252;2022-12-07T15:19:56;32.20;;;20.80;;
11338;SDS011;5724;42.684;23.252;2022-12-07T15:22:22;41.30;;;21.08;;
11338;SDS011;5724;42.684;23.252;2022-12-07T15:24:47;37.38;;;23.98;;
11338;SDS011;5724;42.684;23.252;2022-12-07T15:27:13;36.03;;;22.20;;
11338;SDS011;5724;42.684;23.252;2022-12-07T15:29:39;31.33;;;19.63;;
11338;SDS011;5724;42.684;23.252;2022-12-07T15:32:04;27.85;;;20.35;;
11338;SDS011;5724;42.684;23.252;2022-12-07T15:34:30;32.65;;;21.80;;
11338;SDS011;5724;42.684;23.252;2022-12-07T15:36:56;39.65;;;22.65;;
11338;SDS011;5724;42.684;23.252;2022-12-07T15:39:22;28.48;;;18.90;;
11338;SDS011;5724;42.684;23.252;2022-12-07T15:41:48;26.20;;;18.17;;
11338;SDS011;5724;42.684;23.252;2022-12-07T15:44:13;23.38;;;16.05;;
11338;SDS011;5724;42.684;23.252;2022-12-07T15:46:59;30.23;;;18.23;;
11338;SDS011;5724;42.684;23.252;2022-12-07T15:49:25;28.65;;;18.73;;
11338;SDS011;5724;42.684;23.252;2022-12-07T15:51:51;29.27;;;17.40;;
11338;SDS011;5724;42.684;23.252;2022-12-07T15:54:24;29.55;;;19.77;;
11338;SDS011;5724;42.684;23.252;2022-12-07T15:56:52;34.35;;;22.67;;
11338;SDS011;5724;42.684;23.252;2022-12-07T15:59:18;36.75;;;22.52;;
11338;SDS011;5724;42.684;23.252;2022-12-07T16:01:43;31.65;;;20.05;;
11338;SDS011;5724;42.684;23.252;2022-12-07T16:04:10;31.63;;;21.17;;
11338;SDS011;5724;42.684;23.252;2022-12-07T16:06:36;33.65;;;20.63;;
11338;SDS011;5724;42.684;23.252;2022-12-07T16:09:02;30.38;;;20.88;;
11338;SDS011;5724;42.684;23.252;2022-12-07T16:11:28;31.60;;;21.48;;
11338;SDS011;5724;42.684;23.252;2022-12-07T16:13:54;26.77;;;18.92;;
11338;SDS011;5724;42.684;23.252;2022-12-07T16:16:20;48.40;;;32.60;;
11338;SDS011;5724;42.684;23.252;2022-12-07T16:18:47;39.90;;;27.13;;
11338;SDS011;5724;42.684;23.252;2022-12-07T16:21:13;28.58;;;21.90;;
11338;SDS011;5724;42.684;23.252;2022-12-07T16:23:39;34.38;;;22.77;;
11338;SDS011;5724;42.684;23.252;2022-12-07T16:28:38;55.20;;;32.53;;
11338;SDS011;5724;42.684;23.252;2022-12-07T16:31:07;57.85;;;30.60;;
11338;SDS011;5724;42.684;23.252;2022-12-07T16:33:36;50.55;;;28.13;;
11338;SDS011;5724;42.684;23.252;2022-12-07T16:36:03;36.40;;;25.70;;
11338;SDS011;5724;42.684;23.252;2022-12-07T16:41:14;36.03;;;22.65;;
11338;SDS011;5724;42.684;23.252;2022-12-07T16:43:39;35.15;;;21.73;;
11338;SDS011;5724;42.684;23.252;2022-12-07T16:46:05;42.95;;;22.90;;
11338;SDS011;5724;42.684;23.252;2022-12-07T16:48:31;44.75;;;25.33;;
11338;SDS011;5724;42.684;23.252;2022-12-07T16:50:59;37.75;;;25.35;;